sensor_id;sensor_type;location;lat;lon;timestamp;pressure;altitude;pressure_sealevel;temperature;humidity
72961;BME280;61141;46.204;19.774;2023-01-29T00:02:45;101125.31;;;2.46;95.75
72961;BME280;61141;46.204;19.774;2023-01-29T00:05:48;101131.47;;;2.33;96.36
72961;BME280;61141;46.204;19.774;2023-01-29T00:08:51;101134.56;;;2.08;97.27
72961;BME280;61141;46.204;19.774;2023-01-29T00:11:54;101140.75;;;2.27;96.85
72961;BME280;61141;46.204;19.774;2023-01-29T00:14:56;101141.28;;;1.92;98.01
72961;BME280;61141;46.204;19.774;2023-01-29T00:17:59;101144.78;;;2.11;98.04
72961;BME280;61141;46.204;19.774;2023-01-29T00:21:02;101142.75;;;2.03;98.16
72961;BME280;61141;46.204;19.774;2023-01-29T00:24:05;101148.19;;;2.35;97.18
72961;BME280;61141;46.204;19.774;2023-01-29T00:27:08;101148.13;;;2.40;97.16
72961;BME280;61141;46.204;19.774;2023-01-29T00:30:12;101147.34;;;2.02;97.75
72961;BME280;61141;46.204;19.774;2023-01-29T00:33:16;101151.97;;;2.20;97.67
72961;BME280;61141;46.204;19.774;2023-01-29T00:36:20;101153.47;;;2.08;97.33
72961;BME280;61141;46.204;19.774;2023-01-29T00:39:23;101129.97;;;2.08;97.01
72961;BME280;61141;46.204;19.774;2023-01-29T00:42:43;101151.56;;;2.27;97.00
72961;BME280;61141;46.204;19.774;2023-01-29T00:46:06;101157.69;;;2.32;96.70
72961;BME280;61141;46.204;19.774;2023-01-29T00:49:09;101153.72;;;2.44;96.31
72961;BME280;61141;46.204;19.774;2023-01-29T00:52:12;101152.94;;;2.43;96.62
72961;BME280;61141;46.204;19.774;2023-01-29T00:55:27;101138.59;;;2.29;96.80
72961;BME280;61141;46.204;19.774;2023-01-29T00:58:30;101143.53;;;2.22;96.52
72961;BME280;61141;46.204;19.774;2023-01-29T01:01:36;101152.94;;;2.43;96.39
72961;BME280;61141;46.204;19.774;2023-01-29T01:04:57;101159.78;;;2.54;95.37
72961;BME280;61141;46.204;19.774;2023-01-29T01:08:00;101158.50;;;2.33;95.91
72961;BME280;61141;46.204;19.774;2023-01-29T01:11:05;101143.50;;;2.41;95.53
72961;BME280;61141;46.204;19.774;2023-01-29T01:14:08;101157.78;;;2.60;95.48
72961;BME280;61141;46.204;19.774;2023-01-29T01:17:10;101166.38;;;2.48;95.56
72961;BME280;61141;46.204;19.774;2023-01-29T01:20:14;101155.31;;;2.31;95.65
72961;BME280;61141;46.204;19.774;2023-01-29T01:23:18;101159.53;;;2.37;96.28
72961;BME280;61141;46.204;19.774;2023-01-29T01:26:21;101164.94;;;2.37;96.02
72961;BME280;61141;46.204;19.774;2023-01-29T01:29:24;101157.00;;;2.59;95.60
72961;BME280;61141;46.204;19.774;2023-01-29T01:32:27;101164.78;;;2.47;95.08
72961;BME280;61141;46.204;19.774;2023-01-29T01:35:30;101160.88;;;2.21;95.68
72961;BME280;61141;46.204;19.774;2023-01-29T01:38:33;101163.03;;;2.19;95.65
72961;BME280;61141;46.204;19.774;2023-01-29T01:41:35;101151.94;;;2.39;95.55
72961;BME280;61141;46.204;19.774;2023-01-29T01:47:58;101167.25;;;2.44;95.52
72961;BME280;61141;46.204;19.774;2023-01-29T01:51:04;101165.97;;;2.22;96.11
72961;BME280;61141;46.204;19.774;2023-01-29T01:54:21;101149.47;;;2.05;96.24
72961;BME280;61141;46.204;19.774;2023-01-29T01:57:27;101172.53;;;2.35;96.34
72961;BME280;61141;46.204;19.774;2023-01-29T02:00:33;101149.91;;;1.94;96.66
72961;BME280;61141;46.204;19.774;2023-01-29T02:03:42;101176.94;;;2.31;96.06
72961;BME280;61141;46.204;19.774;2023-01-29T02:07:10;101154.06;;;2.23;95.40
72961;BME280;61141;46.204;19.774;2023-01-29T02:10:45;101163.78;;;2.06;95.62
72961;BME280;61141;46.204;19.774;2023-01-29T02:13:49;101173.38;;;2.68;93.06
72961;BME280;61141;46.204;19.774;2023-01-29T02:17:00;101159.97;;;2.25;93.78
72961;BME280;61141;46.204;19.774;2023-01-29T02:23:46;101181.94;;;2.37;94.86
72961;BME280;61141;46.204;19.774;2023-01-29T02:27:15;101176.06;;;2.17;95.46
72961;BME280;61141;46.204;19.774;2023-01-29T02:30:35;101189.56;;;2.17;93.92
72961;BME280;61141;46.204;19.774;2023-01-29T02:37:05;101203.66;;;1.95;94.07
72961;BME280;61141;46.204;19.774;2023-01-29T02:40:19;101204.41;;;1.77;93.37
72961;BME280;61141;46.204;19.774;2023-01-29T02:43:36;101207.53;;;1.65;94.53
72961;BME280;61141;46.204;19.774;2023-01-29T02:47:00;101211.44;;;1.78;94.24
72961;BME280;61141;46.204;19.774;2023-01-29T02:53:40;101229.38;;;2.30;91.42
72961;BME280;61141;46.204;19.774;2023-01-29T02:59:58;101238.59;;;2.29;89.88
72961;BME280;61141;46.204;19.774;2023-01-29T03:03:15;101237.88;;;1.81;88.84
72961;BME280;61141;46.204;19.774;2023-01-29T03:06:34;101234.22;;;1.91;87.68
72961;BME280;61141;46.204;19.774;2023-01-29T03:09:49;101241.53;;;1.90;86.55
72961;BME280;61141;46.204;19.774;2023-01-29T03:13:02;101209.03;;;1.76;86.95
72961;BME280;61141;46.204;19.774;2023-01-29T03:16:17;101225.94;;;2.06;86.33
72961;BME280;61141;46.204;19.774;2023-01-29T03:19:48;101237.63;;;2.01;86.10
72961;BME280;61141;46.204;19.774;2023-01-29T03:22:57;101237.47;;;2.11;84.57
72961;BME280;61141;46.204;19.774;2023-01-29T03:26:03;101244.56;;;2.26;85.40
72961;BME280;61141;46.204;19.774;2023-01-29T03:29:30;101238.69;;;2.00;84.37
72961;BME280;61141;46.204;19.774;2023-01-29T03:32:54;101235.19;;;2.00;84.05
72961;BME280;61141;46.204;19.774;2023-01-29T03:36:06;101239.69;;;1.86;85.15
72961;BME280;61141;46.204;19.774;2023-01-29T03:39:12;101239.12;;;1.89;84.92
72961;BME280;61141;46.204;19.774;2023-01-29T03:42:23;101237.88;;;2.00;83.45
72961;BME280;61141;46.204;19.774;2023-01-29T03:46:03;101237.53;;;1.64;83.83
72961;BME280;61141;46.204;19.774;2023-01-29T03:52:15;101249.25;;;1.54;84.02
72961;BME280;61141;46.204;19.774;2023-01-29T03:55:42;101245.06;;;1.43;83.81
72961;BME280;61141;46.204;19.774;2023-01-29T04:02:40;101239.97;;;1.37;83.76
72961;BME280;61141;46.204;19.774;2023-01-29T04:05:50;101236.19;;;1.61;82.81
72961;BME280;61141;46.204;19.774;2023-01-29T04:09:16;101241.03;;;1.64;83.63
72961;BME280;61141;46.204;19.774;2023-01-29T04:12:33;101241.62;;;1.33;84.13
72961;BME280;61141;46.204;19.774;2023-01-29T04:15:46;101242.06;;;1.68;84.00
72961;BME280;61141;46.204;19.774;2023-01-29T04:18:52;101235.75;;;1.78;82.79
72961;BME280;61141;46.204;19.774;2023-01-29T04:22:03;101235.31;;;1.66;82.91
72961;BME280;61141;46.204;19.774;2023-01-29T04:25:15;101213.16;;;1.69;83.24
72961;BME280;61141;46.204;19.774;2023-01-29T04:32:19;101235.44;;;1.79;81.55
72961;BME280;61141;46.204;19.774;2023-01-29T04:45:03;101248.41;;;1.30;82.66
72961;BME280;61141;46.204;19.774;2023-01-29T04:48:23;101254.03;;;1.34;83.80
72961;BME280;61141;46.204;19.774;2023-01-29T04:55:03;101256.84;;;1.24;81.79
72961;BME280;61141;46.204;19.774;2023-01-29T04:58:15;101263.94;;;1.43;82.27
72961;BME280;61141;46.204;19.774;2023-01-29T05:01:21;101258.81;;;1.89;80.94
72961;BME280;61141;46.204;19.774;2023-01-29T05:04:30;101248.09;;;1.60;81.81
72961;BME280;61141;46.204;19.774;2023-01-29T05:07:36;101246.81;;;1.29;81.91
72961;BME280;61141;46.204;19.774;2023-01-29T05:10:40;101269.09;;;1.68;81.75
72961;BME280;61141;46.204;19.774;2023-01-29T05:13:44;101250.28;;;1.35;82.28
72961;BME280;61141;46.204;19.774;2023-01-29T05:16:51;101273.56;;;1.49;82.34
72961;BME280;61141;46.204;19.774;2023-01-29T05:19:55;101257.69;;;1.19;82.50
72961;BME280;61141;46.204;19.774;2023-01-29T05:22:58;101280.59;;;1.74;82.88
72961;BME280;61141;46.204;19.774;2023-01-29T05:26:02;101273.25;;;1.27;82.28
72961;BME280;61141;46.204;19.774;2023-01-29T05:29:05;101281.28;;;1.61;83.47
72961;BME280;61141;46.204;19.774;2023-01-29T05:32:08;101275.34;;;1.88;82.80
72961;BME280;61141;46.204;19.774;2023-01-29T05:35:11;101266.69;;;1.38;82.02
72961;BME280;61141;46.204;19.774;2023-01-29T05:38:15;101294.72;;;1.66;82.65
72961;BME280;61141;46.204;19.774;2023-01-29T05:41:19;101286.00;;;1.50;82.48
72961;BME280;61141;46.204;19.774;2023-01-29T05:44:22;101299.78;;;1.96;81.43
72961;BME280;61141;46.204;19.774;2023-01-29T05:47:25;101294.94;;;1.98;81.45
72961;BME280;61141;46.204;19.774;2023-01-29T05:50:28;101296.12;;;1.63;81.09
72961;BME280;61141;46.204;19.774;2023-01-29T05:53:32;101297.72;;;1.64;82.18
72961;BME280;61141;46.204;19.774;2023-01-29T05:56:35;101280.16;;;1.43;81.61
72961;BME280;61141;46.204;19.774;2023-01-29T05:59:38;101302.19;;;1.50;82.34
72961;BME280;61141;46.204;19.774;2023-01-29T06:02:40;101312.59;;;1.33;82.20
72961;BME280;61141;46.204;19.774;2023-01-29T06:05:43;101315.00;;;1.40;82.68
72961;BME280;61141;46.204;19.774;2023-01-29T06:08:46;101299.34;;;1.65;81.41
72961;BME280;61141;46.204;19.774;2023-01-29T06:11:50;101304.56;;;1.81;80.96
72961;BME280;61141;46.204;19.774;2023-01-29T06:14:53;101307.44;;;2.13;79.91
72961;BME280;61141;46.204;19.774;2023-01-29T06:17:56;101312.38;;;1.58;79.97
72961;BME280;61141;46.204;19.774;2023-01-29T06:21:00;101281.41;;;1.22;81.00
72961;BME280;61141;46.204;19.774;2023-01-29T06:24:04;101322.84;;;1.36;81.55
72961;BME280;61141;46.204;19.774;2023-01-29T06:27:07;101316.88;;;1.39;81.43
72961;BME280;61141;46.204;19.774;2023-01-29T06:30:10;101318.63;;;1.54;81.11
72961;BME280;61141;46.204;19.774;2023-01-29T06:33:13;101329.88;;;1.61;80.93
72961;BME280;61141;46.204;19.774;2023-01-29T06:36:17;101301.75;;;1.43;80.45
72961;BME280;61141;46.204;19.774;2023-01-29T06:39:20;101320.06;;;1.99;80.63
72961;BME280;61141;46.204;19.774;2023-01-29T06:42:23;101324.53;;;1.85;81.78
72961;BME280;61141;46.204;19.774;2023-01-29T06:45:29;101332.09;;;1.83;79.98
72961;BME280;61141;46.204;19.774;2023-01-29T06:48:32;101332.78;;;1.69;81.42
72961;BME280;61141;46.204;19.774;2023-01-29T06:51:35;101332.22;;;1.72;81.82
72961;BME280;61141;46.204;19.774;2023-01-29T06:54:38;101310.41;;;1.64;80.98
72961;BME280;61141;46.204;19.774;2023-01-29T06:57:41;101320.97;;;1.60;80.54
72961;BME280;61141;46.204;19.774;2023-01-29T07:00:44;101332.25;;;1.67;81.49
72961;BME280;61141;46.204;19.774;2023-01-29T07:03:49;101333.94;;;1.87;81.67
72961;BME280;61141;46.204;19.774;2023-01-29T07:06:52;101339.22;;;1.97;80.23
72961;BME280;61141;46.204;19.774;2023-01-29T07:09:55;101345.16;;;2.23;80.89
72961;BME280;61141;46.204;19.774;2023-01-29T07:12:58;101339.50;;;2.19;78.16
72961;BME280;61141;46.204;19.774;2023-01-29T07:16:04;101337.16;;;2.13;79.96
72961;BME280;61141;46.204;19.774;2023-01-29T07:19:08;101342.19;;;2.43;79.78
72961;BME280;61141;46.204;19.774;2023-01-29T07:22:10;101343.69;;;1.83;78.78
72961;BME280;61141;46.204;19.774;2023-01-29T07:25:13;101350.62;;;2.18;79.80
72961;BME280;61141;46.204;19.774;2023-01-29T07:28:17;101356.34;;;2.35;80.19
72961;BME280;61141;46.204;19.774;2023-01-29T07:31:20;101331.81;;;2.31;80.03
72961;BME280;61141;46.204;19.774;2023-01-29T07:34:24;101346.09;;;2.32;78.60
72961;BME280;61141;46.204;19.774;2023-01-29T07:37:27;101359.03;;;2.35;80.16
72961;BME280;61141;46.204;19.774;2023-01-29T07:40:31;101353.69;;;2.54;80.99
72961;BME280;61141;46.204;19.774;2023-01-29T07:43:34;101356.56;;;2.38;79.12
72961;BME280;61141;46.204;19.774;2023-01-29T07:46:37;101354.44;;;2.35;78.03
72961;BME280;61141;46.204;19.774;2023-01-29T07:49:40;101352.94;;;2.48;79.33
72961;BME280;61141;46.204;19.774;2023-01-29T07:52:43;101353.59;;;2.40;78.49
72961;BME280;61141;46.204;19.774;2023-01-29T07:55:46;101345.53;;;2.35;78.51
72961;BME280;61141;46.204;19.774;2023-01-29T07:58:48;101340.22;;;2.49;78.71
72961;BME280;61141;46.204;19.774;2023-01-29T08:01:51;101331.81;;;2.50;77.72
72961;BME280;61141;46.204;19.774;2023-01-29T08:04:54;101364.16;;;2.79;76.77
72961;BME280;61141;46.204;19.774;2023-01-29T08:07:57;101368.22;;;2.76;77.16
72961;BME280;61141;46.204;19.774;2023-01-29T08:11:09;101354.66;;;2.81;78.31
72961;BME280;61141;46.204;19.774;2023-01-29T08:14:11;101374.69;;;2.80;76.30
72961;BME280;61141;46.204;19.774;2023-01-29T08:17:14;101372.91;;;2.71;75.78
72961;BME280;61141;46.204;19.774;2023-01-29T08:20:18;101369.94;;;2.72;75.64
72961;BME280;61141;46.204;19.774;2023-01-29T08:23:22;101378.59;;;2.51;76.15
72961;BME280;61141;46.204;19.774;2023-01-29T08:26:25;101385.87;;;2.92;75.75
72961;BME280;61141;46.204;19.774;2023-01-29T08:29:28;101378.94;;;2.86;75.56
72961;BME280;61141;46.204;19.774;2023-01-29T08:32:31;101382.16;;;2.46;76.32
72961;BME280;61141;46.204;19.774;2023-01-29T08:35:35;101362.00;;;2.15;75.51
72961;BME280;61141;46.204;19.774;2023-01-29T08:38:38;101376.31;;;2.81;74.85
72961;BME280;61141;46.204;19.774;2023-01-29T08:41:41;101351.50;;;2.74;75.83
72961;BME280;61141;46.204;19.774;2023-01-29T08:44:43;101377.53;;;2.89;74.23
72961;BME280;61141;46.204;19.774;2023-01-29T08:47:48;101391.28;;;3.11;76.21
72961;BME280;61141;46.204;19.774;2023-01-29T08:50:51;101393.69;;;2.75;74.42
72961;BME280;61141;46.204;19.774;2023-01-29T08:53:54;101390.75;;;2.90;74.46
72961;BME280;61141;46.204;19.774;2023-01-29T08:56:57;101388.12;;;3.23;74.03
72961;BME280;61141;46.204;19.774;2023-01-29T09:00:00;101399.34;;;2.79;74.59
72961;BME280;61141;46.204;19.774;2023-01-29T09:03:03;101390.31;;;2.65;74.43
72961;BME280;61141;46.204;19.774;2023-01-29T09:06:09;101389.91;;;2.95;74.37
72961;BME280;61141;46.204;19.774;2023-01-29T09:09:12;101388.12;;;3.23;74.25
72961;BME280;61141;46.204;19.774;2023-01-29T09:12:16;101355.06;;;3.26;73.55
72961;BME280;61141;46.204;19.774;2023-01-29T09:15:18;101388.28;;;3.13;74.21
72961;BME280;61141;46.204;19.774;2023-01-29T09:18:21;101376.31;;;3.32;74.27
72961;BME280;61141;46.204;19.774;2023-01-29T09:21:25;101375.63;;;2.89;73.13
72961;BME280;61141;46.204;19.774;2023-01-29T09:24:28;101378.75;;;3.15;75.24
72961;BME280;61141;46.204;19.774;2023-01-29T09:27:31;101353.91;;;2.94;74.67
72961;BME280;61141;46.204;19.774;2023-01-29T09:30:35;101365.94;;;3.39;73.41
72961;BME280;61141;46.204;19.774;2023-01-29T09:33:39;101351.03;;;3.55;74.07
72961;BME280;61141;46.204;19.774;2023-01-29T09:36:42;101364.47;;;3.61;71.31
72961;BME280;61141;46.204;19.774;2023-01-29T09:39:45;101362.00;;;3.64;71.83
72961;BME280;61141;46.204;19.774;2023-01-29T09:42:53;101369.31;;;3.64;72.52
72961;BME280;61141;46.204;19.774;2023-01-29T09:46:04;101372.94;;;3.73;72.65
72961;BME280;61141;46.204;19.774;2023-01-29T09:49:36;101379.69;;;3.75;73.99
72961;BME280;61141;46.204;19.774;2023-01-29T09:52:49;101387.00;;;3.24;73.72
72961;BME280;61141;46.204;19.774;2023-01-29T09:56:13;101380.50;;;3.57;72.52
72961;BME280;61141;46.204;19.774;2023-01-29T09:59:20;101386.88;;;3.66;72.42
72961;BME280;61141;46.204;19.774;2023-01-29T10:06:22;101391.75;;;3.96;72.29
72961;BME280;61141;46.204;19.774;2023-01-29T10:14:15;101377.81;;;4.03;71.43
72961;BME280;61141;46.204;19.774;2023-01-29T10:23:52;101371.66;;;3.84;71.77
72961;BME280;61141;46.204;19.774;2023-01-29T10:26:58;101370.16;;;3.91;71.18
72961;BME280;61141;46.204;19.774;2023-01-29T10:30:06;101373.06;;;3.49;71.70
72961;BME280;61141;46.204;19.774;2023-01-29T10:33:17;101362.47;;;3.52;72.08
72961;BME280;61141;46.204;19.774;2023-01-29T10:36:25;101346.22;;;3.20;72.75
72961;BME280;61141;46.204;19.774;2023-01-29T10:39:30;101371.41;;;3.53;73.39
72961;BME280;61141;46.204;19.774;2023-01-29T10:42:45;101362.47;;;3.52;71.79
72961;BME280;61141;46.204;19.774;2023-01-29T10:46:21;101374.97;;;3.48;73.51
72961;BME280;61141;46.204;19.774;2023-01-29T10:53:15;101370.28;;;4.00;72.08
72961;BME280;61141;46.204;19.774;2023-01-29T11:03:29;101359.91;;;3.75;73.54
72961;BME280;61141;46.204;19.774;2023-01-29T11:06:34;101360.47;;;3.58;71.72
72961;BME280;61141;46.204;19.774;2023-01-29T11:12:52;101338.91;;;3.34;72.95
72961;BME280;61141;46.204;19.774;2023-01-29T11:15:55;101359.81;;;3.80;72.24
72961;BME280;61141;46.204;19.774;2023-01-29T11:19:00;101363.66;;;3.60;72.00
72961;BME280;61141;46.204;19.774;2023-01-29T11:22:03;101356.63;;;3.59;71.37
72961;BME280;61141;46.204;19.774;2023-01-29T11:25:15;101332.88;;;3.24;72.54
72961;BME280;61141;46.204;19.774;2023-01-29T11:28:41;101362.72;;;3.70;72.49
72961;BME280;61141;46.204;19.774;2023-01-29T11:31:44;101356.72;;;3.54;71.07
72961;BME280;61141;46.204;19.774;2023-01-29T11:35:05;101361.81;;;3.74;71.22
72961;BME280;61141;46.204;19.774;2023-01-29T11:38:26;101355.16;;;3.67;72.81
72961;BME280;61141;46.204;19.774;2023-01-29T11:41:42;101352.25;;;3.63;73.57
72961;BME280;61141;46.204;19.774;2023-01-29T11:44:45;101342.84;;;3.10;75.14
72961;BME280;61141;46.204;19.774;2023-01-29T11:47:55;101344.97;;;3.13;75.79
72961;BME280;61141;46.204;19.774;2023-01-29T11:50:59;101346.25;;;3.34;76.31
72961;BME280;61141;46.204;19.774;2023-01-29T11:54:03;101313.72;;;3.20;76.26
72961;BME280;61141;46.204;19.774;2023-01-29T12:00:27;101334.38;;;3.62;75.42
72961;BME280;61141;46.204;19.774;2023-01-29T12:03:45;101336.31;;;3.75;75.38
72961;BME280;61141;46.204;19.774;2023-01-29T12:06:51;101324.56;;;3.20;76.22
72961;BME280;61141;46.204;19.774;2023-01-29T12:09:57;101326.47;;;3.20;75.86
72961;BME280;61141;46.204;19.774;2023-01-29T12:22:45;101311.22;;;2.91;77.99
72961;BME280;61141;46.204;19.774;2023-01-29T12:33:11;101291.53;;;3.37;77.66
72961;BME280;61141;46.204;19.774;2023-01-29T12:36:18;101301.66;;;3.13;79.62
72961;BME280;61141;46.204;19.774;2023-01-29T12:39:23;101296.06;;;2.90;79.64
72961;BME280;61141;46.204;19.774;2023-01-29T12:42:26;101268.50;;;2.88;81.47
72961;BME280;61141;46.204;19.774;2023-01-29T12:45:30;101293.69;;;2.70;80.51
72961;BME280;61141;46.204;19.774;2023-01-29T12:48:37;101281.69;;;2.39;82.02
72961;BME280;61141;46.204;19.774;2023-01-29T12:55:19;101289.88;;;2.71;82.11
72961;BME280;61141;46.204;19.774;2023-01-29T12:58:28;101294.13;;;2.59;82.41
72961;BME280;61141;46.204;19.774;2023-01-29T13:01:39;101300.78;;;2.48;82.29
72961;BME280;61141;46.204;19.774;2023-01-29T13:04:48;101297.09;;;2.57;82.18
72961;BME280;61141;46.204;19.774;2023-01-29T13:11:36;101281.63;;;2.81;81.57
72961;BME280;61141;46.204;19.774;2023-01-29T13:17:52;101293.22;;;2.82;82.75
72961;BME280;61141;46.204;19.774;2023-01-29T13:20:58;101294.97;;;2.91;82.61
72961;BME280;61141;46.204;19.774;2023-01-29T13:24:13;101270.84;;;2.76;82.24
72961;BME280;61141;46.204;19.774;2023-01-29T13:27:26;101284.72;;;2.88;82.18
72961;BME280;61141;46.204;19.774;2023-01-29T13:30:32;101288.09;;;2.80;81.91
72961;BME280;61141;46.204;19.774;2023-01-29T13:33:39;101279.19;;;3.12;80.39
72961;BME280;61141;46.204;19.774;2023-01-29T13:36:45;101273.69;;;2.85;80.66
72961;BME280;61141;46.204;19.774;2023-01-29T13:39:51;101279.22;;;2.61;80.89
72961;BME280;61141;46.204;19.774;2023-01-29T13:42:55;101268.44;;;2.75;81.12
72961;BME280;61141;46.204;19.774;2023-01-29T13:46:15;101274.16;;;2.73;80.73
72961;BME280;61141;46.204;19.774;2023-01-29T13:49:25;101275.09;;;2.82;79.85
72961;BME280;61141;46.204;19.774;2023-01-29T13:52:38;101278.13;;;3.27;77.94
72961;BME280;61141;46.204;19.774;2023-01-29T13:55:44;101281.41;;;3.10;78.49
72961;BME280;61141;46.204;19.774;2023-01-29T13:58:56;101280.31;;;2.79;79.20
72961;BME280;61141;46.204;19.774;2023-01-29T14:02:01;101284.91;;;2.78;79.59
72961;BME280;61141;46.204;19.774;2023-01-29T14:08:37;101282.91;;;2.65;79.15
72961;BME280;61141;46.204;19.774;2023-01-29T14:11:46;101286.44;;;2.66;79.97
72961;BME280;61141;46.204;19.774;2023-01-29T14:15:13;101248.75;;;2.37;79.28
72961;BME280;61141;46.204;19.774;2023-01-29T14:18:18;101264.72;;;2.33;79.42
72961;BME280;61141;46.204;19.774;2023-01-29T14:21:30;101281.50;;;2.12;80.86
72961;BME280;61141;46.204;19.774;2023-01-29T14:24:34;101279.22;;;2.61;81.08
72961;BME280;61141;46.204;19.774;2023-01-29T14:27:36;101279.28;;;2.56;80.06
72961;BME280;61141;46.204;19.774;2023-01-29T14:30:45;101283.06;;;2.74;79.38
72961;BME280;61141;46.204;19.774;2023-01-29T14:33:51;101261.28;;;2.65;79.23
72961;BME280;61141;46.204;19.774;2023-01-29T14:36:58;101285.56;;;2.52;78.89
72961;BME280;61141;46.204;19.774;2023-01-29T14:43:19;101278.00;;;2.11;79.74
72961;BME280;61141;46.204;19.774;2023-01-29T14:53:55;101254.78;;;2.66;78.74
72961;BME280;61141;46.204;19.774;2023-01-29T14:57:02;101259.81;;;2.54;77.96
72961;BME280;61141;46.204;19.774;2023-01-29T15:00:24;101256.69;;;2.84;77.78
72961;BME280;61141;46.204;19.774;2023-01-29T15:03:36;101259.72;;;2.96;77.13
72961;BME280;61141;46.204;19.774;2023-01-29T15:06:46;101259.06;;;2.86;77.94
72961;BME280;61141;46.204;19.774;2023-01-29T15:10:03;101268.81;;;2.87;77.57
72961;BME280;61141;46.204;19.774;2023-01-29T15:13:31;101263.34;;;2.73;77.98
72961;BME280;61141;46.204;19.774;2023-01-29T15:16:52;101251.31;;;2.79;76.79
72961;BME280;61141;46.204;19.774;2023-01-29T15:19:59;101255.66;;;2.43;77.39
72961;BME280;61141;46.204;19.774;2023-01-29T15:23:02;101259.56;;;2.37;78.53
72961;BME280;61141;46.204;19.774;2023-01-29T15:26:08;101254.06;;;2.61;78.34
72961;BME280;61141;46.204;19.774;2023-01-29T15:29:22;101251.28;;;2.84;78.30
72961;BME280;61141;46.204;19.774;2023-01-29T15:32:30;101237.22;;;2.82;76.71
72961;BME280;61141;46.204;19.774;2023-01-29T15:38:38;101267.50;;;2.47;77.45
72961;BME280;61141;46.204;19.774;2023-01-29T15:41:42;101277.09;;;2.58;78.34
72961;BME280;61141;46.204;19.774;2023-01-29T15:44:45;101279.78;;;2.58;77.89
72961;BME280;61141;46.204;19.774;2023-01-29T15:47:49;101270.72;;;2.49;77.88
72961;BME280;61141;46.204;19.774;2023-01-29T15:50:53;101276.47;;;2.80;77.78
72961;BME280;61141;46.204;19.774;2023-01-29T15:54:03;101268.56;;;2.51;77.68
72961;BME280;61141;46.204;19.774;2023-01-29T15:57:17;101267.94;;;2.17;77.72
72961;BME280;61141;46.204;19.774;2023-01-29T16:00:26;101281.37;;;2.41;77.95
72961;BME280;61141;46.204;19.774;2023-01-29T16:03:32;101251.00;;;2.30;77.56
72961;BME280;61141;46.204;19.774;2023-01-29T16:06:38;101292.06;;;2.69;77.73
72961;BME280;61141;46.204;19.774;2023-01-29T16:09:42;101271.59;;;2.45;78.09
72961;BME280;61141;46.204;19.774;2023-01-29T16:12:46;101293.66;;;2.33;77.79
72961;BME280;61141;46.204;19.774;2023-01-29T16:16:01;101292.00;;;2.37;77.93
72961;BME280;61141;46.204;19.774;2023-01-29T16:19:19;101287.44;;;2.32;78.99
72961;BME280;61141;46.204;19.774;2023-01-29T16:22:25;101296.81;;;2.40;78.98
72961;BME280;61141;46.204;19.774;2023-01-29T16:25:31;101272.75;;;2.20;78.53
72961;BME280;61141;46.204;19.774;2023-01-29T16:28:40;101291.13;;;1.99;79.09
72961;BME280;61141;46.204;19.774;2023-01-29T16:31:44;101295.94;;;2.26;79.09
72961;BME280;61141;46.204;19.774;2023-01-29T16:34:49;101300.78;;;2.24;78.71
72961;BME280;61141;46.204;19.774;2023-01-29T16:38:01;101295.53;;;2.14;78.99
72961;BME280;61141;46.204;19.774;2023-01-29T16:41:13;101304.03;;;2.02;78.85
72961;BME280;61141;46.204;19.774;2023-01-29T16:47:27;101314.16;;;1.92;78.77
72961;BME280;61141;46.204;19.774;2023-01-29T16:50:33;101317.22;;;2.09;78.94
72961;BME280;61141;46.204;19.774;2023-01-29T16:53:53;101306.56;;;2.17;78.53
72961;BME280;61141;46.204;19.774;2023-01-29T16:56:58;101290.00;;;1.82;77.27
72961;BME280;61141;46.204;19.774;2023-01-29T17:00:05;101306.06;;;1.92;77.35
72961;BME280;61141;46.204;19.774;2023-01-29T17:03:11;101307.69;;;1.93;75.74
72961;BME280;61141;46.204;19.774;2023-01-29T17:06:21;101301.75;;;1.91;75.19
72961;BME280;61141;46.204;19.774;2023-01-29T17:09:30;101276.53;;;1.76;74.88
72961;BME280;61141;46.204;19.774;2023-01-29T17:12:37;101274.78;;;1.86;75.32
72961;BME280;61141;46.204;19.774;2023-01-29T17:18:46;101305.25;;;1.91;75.89
72961;BME280;61141;46.204;19.774;2023-01-29T17:21:49;101270.13;;;1.91;75.83
72961;BME280;61141;46.204;19.774;2023-01-29T17:24:54;101304.16;;;2.16;75.19
72961;BME280;61141;46.204;19.774;2023-01-29T17:27:59;101286.44;;;2.05;74.75
72961;BME280;61141;46.204;19.774;2023-01-29T17:31:05;101310.97;;;2.32;75.60
72961;BME280;61141;46.204;19.774;2023-01-29T17:34:13;101304.16;;;2.16;76.31
72961;BME280;61141;46.204;19.774;2023-01-29T17:37:17;101311.19;;;1.93;75.15
72961;BME280;61141;46.204;19.774;2023-01-29T17:40:36;101310.50;;;2.06;73.75
72961;BME280;61141;46.204;19.774;2023-01-29T17:43:41;101305.84;;;1.64;74.19
72961;BME280;61141;46.204;19.774;2023-01-29T17:46:46;101299.97;;;1.81;75.10
72961;BME280;61141;46.204;19.774;2023-01-29T17:49:49;101306.00;;;1.73;73.28
72961;BME280;61141;46.204;19.774;2023-01-29T17:52:52;101311.22;;;1.64;72.60
72961;BME280;61141;46.204;19.774;2023-01-29T17:55:56;101305.09;;;1.83;72.93
72961;BME280;61141;46.204;19.774;2023-01-29T17:58:59;101310.16;;;1.89;70.23
72961;BME280;61141;46.204;19.774;2023-01-29T18:02:03;101294.56;;;2.05;71.45
72961;BME280;61141;46.204;19.774;2023-01-29T18:05:06;101314.66;;;1.46;68.35
72961;BME280;61141;46.204;19.774;2023-01-29T18:08:42;101323.22;;;1.53;69.94
72961;BME280;61141;46.204;19.774;2023-01-29T18:11:45;101318.37;;;1.79;69.59
72961;BME280;61141;46.204;19.774;2023-01-29T18:14:49;101311.22;;;1.64;68.36
72961;BME280;61141;46.204;19.774;2023-01-29T18:17:52;101307.72;;;1.64;70.22
72961;BME280;61141;46.204;19.774;2023-01-29T18:20:55;101297.53;;;1.56;68.69
72961;BME280;61141;46.204;19.774;2023-01-29T18:23:58;101289.22;;;1.52;69.46
72961;BME280;61141;46.204;19.774;2023-01-29T18:27:01;101300.44;;;1.36;68.13